Time;durP1;ratioP1;P1;durP2;ratioP2;P2;SDS_P1;SDS_P2;PMS_P1;PMS_P2;Temp;Humidity;BMP_temperature;BMP_pressure;BME280_temperature;BME280_humidity;BME280_pressure;Samples;Min_cycle;Max_cycle;Signal;HPM_P1;HPM_P2
2022/06/28 00:01:00;;;;;;;3.72;2.22;;;14.40;99.90;;;;;;6703374;88;20298;-79
2022/06/28 00:11:00;;;;;;;5.12;2.65;;;14.40;99.90;;;;;;6711687;88;20201;-80
2022/06/28 00:21:02;;;;;;;3.37;2.08;;;14.30;99.90;;;;;;6699136;88;20237;-80
2022/06/28 00:31:04;;;;;;;3.70;2.20;;;14.10;99.90;;;;;;6694843;88;20195;-80
2022/06/28 00:41:04;;;;;;;4.60;1.95;;;14.20;99.90;;;;;;6714497;88;20355;-80
2022/06/28 00:51:07;;;;;;;4.93;1.93;;;14.10;99.90;;;;;;6715260;88;20185;-79
2022/06/28 01:01:08;;;;;;;3.72;2.20;;;13.80;99.90;;;;;;6712186;88;20567;-81
2022/06/28 01:11:28;;;;;;;3.87;2.50;;;13.70;99.90;;;;;;6711859;88;20190;-80
2022/06/28 01:21:29;;;;;;;6.47;2.30;;;13.50;99.90;;;;;;6702143;88;20223;-79
2022/06/28 01:31:31;;;;;;;5.50;2.42;;;13.50;99.90;;;;;;6709325;88;20183;-80
2022/06/28 01:42:12;;;;;;;6.22;2.50;;;13.50;99.90;;;;;;6718558;77;20207;-78
2022/06/28 01:52:13;;;;;;;3.65;2.12;;;13.60;99.90;;;;;;6709720;88;20197;-78
2022/06/28 02:02:13;;;;;;;3.22;2.10;;;13.50;99.90;;;;;;6708669;88;20211;-80
2022/06/28 02:12:14;;;;;;;3.53;2.12;;;13.50;99.90;;;;;;6709012;88;20296;-80
2022/06/28 02:22:14;;;;;;;4.50;2.33;;;13.50;99.90;;;;;;6708482;88;20309;-78
2022/06/28 02:32:15;;;;;;;6.47;2.30;;;13.50;99.90;;;;;;6708769;88;20260;-78
2022/06/28 02:42:15;;;;;;;6.50;3.12;;;13.40;99.90;;;;;;6687152;88;20227;-78
2022/06/28 02:52:16;;;;;;;6.18;3.15;;;13.50;99.90;;;;;;6691263;88;20197;-79
2022/06/28 03:02:16;;;;;;;6.32;3.05;;;13.30;99.90;;;;;;6691910;88;20202;-79
2022/06/28 03:12:17;;;;;;;4.53;2.42;;;13.20;99.90;;;;;;6691962;88;20224;-78
2022/06/28 03:22:17;;;;;;;5.03;2.62;;;13.30;99.90;;;;;;6702511;88;20639;-78
2022/06/28 03:32:18;;;;;;;3.50;1.95;;;13.30;99.90;;;;;;6713068;88;20186;-79
2022/06/28 03:42:19;;;;;;;4.23;2.00;;;13.40;99.90;;;;;;6697479;88;20211;-80
2022/06/28 03:52:28;;;;;;;7.20;2.53;;;13.30;99.90;;;;;;6701452;88;20520;-79
2022/06/28 04:02:29;;;;;;;6.35;2.60;;;13.40;99.90;;;;;;6709200;88;20325;-79
2022/06/28 04:12:29;;;;;;;4.90;2.37;;;13.10;99.90;;;;;;6700524;88;20186;-79
2022/06/28 04:22:30;;;;;;;3.70;2.45;;;13.20;99.90;;;;;;6693547;88;20271;-79
2022/06/28 04:32:30;;;;;;;3.50;2.37;;;13.20;99.90;;;;;;6719272;88;20282;-78
2022/06/28 04:42:31;;;;;;;5.45;2.47;;;13.40;99.90;;;;;;6706805;88;20193;-78
2022/06/28 04:52:31;;;;;;;3.30;2.28;;;13.50;99.90;;;;;;6700217;88;20195;-79
2022/06/28 05:02:32;;;;;;;3.97;2.20;;;13.60;99.90;;;;;;6706064;88;20194;-78
2022/06/28 05:12:32;;;;;;;4.50;2.85;;;13.80;99.90;;;;;;6699974;88;20291;-78
2022/06/28 05:22:33;;;;;;;5.03;3.50;;;13.90;99.90;;;;;;6697719;88;20266;-79
2022/06/28 05:32:33;;;;;;;7.45;4.03;;;14.00;99.90;;;;;;6698092;88;20240;-79
2022/06/28 05:42:34;;;;;;;9.77;3.85;;;14.20;99.90;;;;;;6698677;88;20181;-80
2022/06/28 05:52:34;;;;;;;8.25;4.35;;;14.50;99.90;;;;;;6706941;89;20210;-80
2022/06/28 06:02:35;;;;;;;16.00;5.10;;;14.80;99.90;;;;;;6710783;88;20817;-81
2022/06/28 06:12:36;;;;;;;7.70;4.53;;;15.00;99.90;;;;;;6701800;88;20233;-81
2022/06/28 06:22:36;;;;;;;10.60;4.28;;;15.50;99.90;;;;;;6713555;88;20221;-79
2022/06/28 06:32:37;;;;;;;7.82;4.22;;;16.10;99.90;;;;;;6713599;88;20237;-80
2022/06/28 06:42:38;;;;;;;12.85;4.43;;;16.40;99.90;;;;;;6714341;88;20186;-80
2022/06/28 06:52:39;;;;;;;4.57;2.92;;;16.80;99.90;;;;;;6710485;88;20198;-80
2022/06/28 07:02:41;;;;;;;8.05;2.42;;;17.40;99.90;;;;;;6707097;88;20200;-79
2022/06/28 07:12:42;;;;;;;6.10;2.28;;;17.70;99.90;;;;;;6699729;88;20220;-79
2022/06/28 07:22:42;;;;;;;2.65;1.45;;;18.80;99.90;;;;;;6710563;88;20645;-79
2022/06/28 07:32:44;;;;;;;4.18;1.65;;;19.00;99.90;;;;;;6705147;88;20734;-79
2022/06/28 07:43:05;;;;;;;6.00;1.70;;;19.40;99.90;;;;;;6724777;78;20194;-80
2022/06/28 07:53:07;;;;;;;5.18;1.15;;;20.30;99.90;;;;;;6704037;88;20653;-80
2022/06/28 08:03:07;;;;;;;5.62;0.93;;;20.80;99.90;;;;;;6699437;88;20193;-80
2022/06/28 08:13:09;;;;;;;6.37;0.95;;;20.90;99.90;;;;;;6707604;88;20190;-79
2022/06/28 08:23:10;;;;;;;4.82;1.17;;;21.50;99.90;;;;;;6712116;88;20268;-81
2022/06/28 08:33:12;;;;;;;3.83;1.10;;;22.20;99.90;;;;;;6712062;88;20308;-80
2022/06/28 08:43:12;;;;;;;4.32;0.98;;;22.00;99.90;;;;;;6712015;88;20225;-81
2022/06/28 08:53:13;;;;;;;4.15;1.12;;;23.10;99.90;;;;;;6722242;88;20719;-81
2022/06/28 09:03:15;;;;;;;3.83;1.10;;;23.10;99.90;;;;;;6711563;88;20208;-80
2022/06/28 09:13:17;;;;;;;4.20;1.20;;;23.40;99.90;;;;;;6706621;88;20219;-80
2022/06/28 09:23:33;;;;;;;3.35;1.08;;;24.80;94.20;;;;;;6705484;88;20198;-81
2022/06/28 09:33:33;;;;;;;5.37;4.25;;;24.90;96.70;;;;;;6688693;88;20323;-80
2022/06/28 09:43:34;;;;;;;7.03;6.22;;;26.30;94.20;;;;;;6688966;88;20194;-80
2022/06/28 09:53:42;;;;;;;2.30;0.90;;;26.70;90.10;;;;;;6685219;89;20301;-81
2022/06/28 10:03:43;;;;;;;1.40;0.70;;;26.20;88.50;;;;;;6689476;88;20480;-80
2022/06/28 10:24:05;;;;;;;4.65;1.10;;;28.20;85.30;;;;;;6691640;88;20206;-81
2022/06/28 10:34:15;;;;;;;2.25;0.90;;;27.50;85.70;;;;;;6691879;88;20839;-81
2022/06/28 10:44:27;;;;;;;2.10;1.10;;;27.90;89.30;;;;;;6690962;88;20182;-81
2022/06/28 10:54:28;;;;;;;3.03;0.90;;;29.10;83.60;;;;;;6699201;88;20206;-80
2022/06/28 11:04:30;;;;;;;2.92;0.80;;;27.90;82.10;;;;;;6692357;88;20224;-81
2022/06/28 11:14:44;;;;;;;2.60;0.85;;;28.80;77.10;;;;;;6689808;88;20203;-82
2022/06/28 11:24:45;;;;;;;2.33;0.80;;;30.20;78.50;;;;;;6692304;88;20201;-81
2022/06/28 11:35:01;;;;;;;3.17;0.90;;;28.30;77.90;;;;;;6692091;88;20213;-80
2022/06/28 11:45:02;;;;;;;2.25;0.90;;;26.40;79.00;;;;;;6690221;88;20186;-81
2022/06/28 11:55:03;;;;;;;5.53;0.90;;;26.40;84.30;;;;;;6693097;88;20221;-80
2022/06/28 12:05:04;;;;;;;2.25;0.90;;;26.30;82.30;;;;;;6687177;88;20204;-80
2022/06/28 12:15:05;;;;;;;1.60;0.80;;;27.50;82.20;;;;;;6689564;88;20194;-81
2022/06/28 12:25:11;;;;;;;1.77;0.70;;;29.10;77.70;;;;;;6691464;88;20706;-81
2022/06/28 12:35:12;;;;;;;2.53;0.88;;;28.00;76.70;;;;;;6707323;88;20210;-80
2022/06/28 12:45:13;;;;;;;2.22;0.80;;;29.60;74.50;;;;;;6709057;88;20229;-81
2022/06/28 12:55:14;;;;;;;3.53;0.90;;;27.60;79.60;;;;;;6705856;88;20208;-79
2022/06/28 13:05:14;;;;;;;3.87;0.90;;;28.90;77.40;;;;;;6708273;88;21037;-79
2022/06/28 13:15:15;;;;;;;5.37;1.00;;;28.00;76.60;;;;;;6708517;88;20193;-80
2022/06/28 13:25:16;;;;;;;2.33;0.90;;;27.70;76.70;;;;;;6720920;88;20197;-79
2022/06/28 13:45:20;;;;;;;3.15;1.20;;;27.60;76.90;;;;;;6750897;88;20212;-81
2022/06/28 13:55:23;;;;;;;4.62;1.10;;;27.90;77.20;;;;;;6749543;88;20260;-82
2022/06/28 14:05:24;;;;;;;1.67;0.77;;;28.10;76.40;;;;;;6749475;88;20229;-83
2022/06/28 14:15:28;;;;;;;1.62;0.80;;;29.80;74.50;;;;;;6749596;88;20777;-83
2022/06/28 14:25:28;;;;;;;1.83;0.95;;;31.20;71.70;;;;;;6696335;88;20916;-84
2022/06/28 14:35:31;;;;;;;3.87;0.93;;;31.00;71.00;;;;;;6678990;88;20196;-84
2022/06/28 14:45:32;;;;;;;1.58;0.77;;;30.00;69.80;;;;;;6695854;88;20926;-83
2022/06/28 14:55:32;;;;;;;4.33;1.00;;;29.10;70.00;;;;;;6664628;89;20292;-84
2022/06/28 15:05:33;;;;;;;2.73;0.90;;;29.80;70.80;;;;;;6674169;89;20496;-83
2022/06/28 15:15:33;;;;;;;2.80;1.00;;;31.00;68.50;;;;;;6681209;89;20511;-83
2022/06/28 15:35:56;;;;;;;3.33;1.10;;;29.80;69.90;;;;;;6697679;88;20171;-83
2022/06/28 15:45:57;;;;;;;1.92;0.95;;;29.20;68.90;;;;;;6697981;88;20243;-83
2022/06/28 15:55:57;;;;;;;2.47;0.90;;;28.00;70.40;;;;;;6726918;88;20167;-84
2022/06/28 16:05:58;;;;;;;2.47;1.00;;;28.90;68.10;;;;;;6729264;88;20264;-81
2022/06/28 16:15:59;;;;;;;1.60;0.90;;;29.90;67.10;;;;;;6723511;88;20755;-81
2022/06/28 16:26:00;;;;;;;2.55;0.90;;;28.30;67.70;;;;;;6725080;88;20246;-81
2022/06/28 16:36:01;;;;;;;1.55;0.88;;;28.40;68.60;;;;;;6705085;88;20172;-81
2022/06/28 16:46:01;;;;;;;2.37;0.90;;;27.30;69.90;;;;;;6704039;88;20288;-81
2022/06/28 16:56:02;;;;;;;4.40;1.10;;;26.90;69.60;;;;;;6704039;88;20210;-81
2022/06/28 17:06:02;;;;;;;2.10;0.98;;;26.60;70.10;;;;;;6718846;88;20616;-81
2022/06/28 17:16:03;;;;;;;4.73;0.90;;;27.10;70.10;;;;;;6705012;88;20203;-81
2022/06/28 17:26:04;;;;;;;2.43;0.90;;;27.10;68.40;;;;;;6690444;89;20224;-81
2022/06/28 17:36:04;;;;;;;1.77;0.80;;;27.30;69.50;;;;;;6688192;89;20490;-82
2022/06/28 17:46:05;;;;;;;3.10;1.00;;;27.90;69.90;;;;;;6669176;89;20188;-83
2022/06/28 17:56:05;;;;;;;3.70;1.55;;;28.20;68.40;;;;;;6691703;88;20219;-81
2022/06/28 18:06:06;;;;;;;2.17;1.40;;;30.00;67.00;;;;;;6711716;88;20826;-81
2022/06/28 18:16:07;;;;;;;2.75;1.10;;;28.10;70.40;;;;;;6713706;88;20222;-79
2022/06/28 18:26:07;;;;;;;2.05;1.10;;;28.90;70.00;;;;;;6718157;88;20173;-83
2022/06/28 18:36:08;;;;;;;1.95;0.93;;;28.40;69.50;;;;;;6725093;88;20177;-81
2022/06/28 18:46:09;;;;;;;5.07;1.67;;;28.20;70.50;;;;;;6729452;88;20799;-80
2022/06/28 18:56:09;;;;;;;2.70;1.00;;;27.20;72.20;;;;;;6712286;88;20200;-80
2022/06/28 19:06:10;;;;;;;3.72;1.40;;;26.10;71.90;;;;;;6711116;88;20235;-79
2022/06/28 19:16:11;;;;;;;2.62;1.00;;;25.30;75.00;;;;;;6719199;88;20195;-79
2022/06/28 19:26:11;;;;;;;2.90;1.00;;;25.10;76.70;;;;;;6713501;88;20243;-79
2022/06/28 19:36:12;;;;;;;2.45;1.00;;;24.80;77.00;;;;;;6716007;88;20316;-78
2022/06/28 19:46:15;;;;;;;3.80;1.10;;;24.50;78.10;;;;;;6713445;88;20210;-78
2022/06/28 19:56:16;;;;;;;3.30;1.30;;;24.30;79.20;;;;;;6710096;88;20572;-79
2022/06/28 20:06:16;;;;;;;2.90;1.30;;;23.80;81.70;;;;;;6715618;88;20193;-81
2022/06/28 20:16:17;;;;;;;3.50;1.50;;;23.60;83.00;;;;;;6736252;88;20604;-82
2022/06/28 20:26:17;;;;;;;2.92;1.60;;;23.10;85.00;;;;;;6731143;88;20193;-81
2022/06/28 20:36:18;;;;;;;4.68;1.77;;;22.60;86.80;;;;;;6733761;88;20696;-81
2022/06/28 20:46:39;;;;;;;3.22;1.55;;;22.20;88.90;;;;;;6748655;77;20163;-83
2022/06/28 20:57:01;;;;;;;2.70;1.30;;;21.90;91.60;;;;;;6749768;77;20155;-86
2022/06/28 21:07:42;;;;;;;3.08;1.23;;;21.60;92.40;;;;;;4877789;77;21443;-87
2022/06/28 21:27:46;;;;;;;2.93;1.80;;;21.20;95.00;;;;;;6701629;88;20207;-85
2022/06/28 21:38:29;;;;;;;3.67;2.15;;;21.00;97.50;;;;;;6797683;77;20358;-85
2022/06/28 21:48:30;;;;;;;5.97;2.40;;;20.70;99.90;;;;;;6716975;88;20966;-84
2022/06/28 21:58:30;;;;;;;2.80;1.75;;;20.60;99.90;;;;;;6716486;88;20154;-85
2022/06/28 22:29:57;;;;;;;3.03;1.73;;;20.40;99.90;;;;;;4825278;77;20242;-84
